Esmeralda, Argentina
Current Conditions -  °F | °C
As of 8:00 PM on Monday 24 Nov 2014 (Local Time) from SAAR Reporting Station
Clear Clear  
Wind Chill: 72°   Ceiling: Unl
Heat Index: 72°   Visibility: 6mi
Dew Point: 41°   Wind: 12mph
Humidity: 33%   Direction: 140°SE
Pressure: 29.8"   Gusts: NA
Location:  31.77°S, 61.81°W
Report Text: SAAR 242300Z 14010KT CAVOK 22/05 Q1009
Loading
Personal Weather Stations






























Interactive Weather Map New forecast layout! Learn more

10-Day Weather Forecast

Advertisements
Track Severe Weather on mobile